Williamsburg, Iowa
Current Conditions -  °F | °C
As of 9:52 AM on Thursday 27 Nov 2014 (Local Time) from KCID Reporting Station
Clear Clear  
Wind Chill: -4°   Ceiling: Unl
Heat Index: 11°   Visibility: 10mi
Dew Point:   Wind: 13mph
Humidity: 77%   Direction: 300°WNW
Pressure: 30.47"   Gusts: NA
Location:  41.66°N, 92.01°W
Report Text: KCID 271552Z 30011KT 10SM CLR M12/M15 A3047 RMK AO2 SLP334 T11171150
Loading
Personal Weather Stations






























Interactive Weather Map New forecast layout! Learn more

10-Day Weather Forecast

Advertisements
Track Severe Weather on mobile